Terminal Aerodrome Forecast
Issued by NWS Charleston, WV

Current Version | Previous Version | Text Only | Print | Product List | Glossary Off
Versions: 1 2 3 4 5 6 7 8 9 10 11 12 13 14 15 16 17 18 19 20 21 22 23 24 25 26 27 28 29 30 31 32

000
FTUS41 KRLX 220240 AAA
TAFBKW
TAF AMD
KBKW 220240Z 2203/2224 02006KT P6SM BKN090 BKN100
     FM220500 09003KT 5SM BR SCT002
      TEMPO 2205/2208 2SM BR
     FM220800 00000KT 1SM BR VV002
     FM221100 13003KT 5SM BR BKN002
     FM221300 00000KT P6SM FEW040=

USA.gov is the U.S. government's official web portal to all federal, state and local government web resources and services.